Time;durP1;ratioP1;P1;durP2;ratioP2;P2;SDS_P1;SDS_P2;PMS_P1;PMS_P2;Temp;Humidity;BMP_temperature;BMP_pressure;BME280_temperature;BME280_humidity;BME280_pressure;Samples;Min_cycle;Max_cycle;Signal;HPM_P1;HPM_P2
2023/12/28 00:02:28;;;;;;;8.67;4.10;;;5.10;99.90;;;;;;7775844;28;20648;-90
2023/12/28 00:06:13;;;;;;;11.67;3.90;;;5.10;99.90;;;;;;7748869;28;20577;-90
2023/12/28 00:09:59;;;;;;;7.17;3.90;;;5.10;99.90;;;;;;7748610;28;20486;-90
2023/12/28 00:13:45;;;;;;;10.97;4.13;;;5.20;99.90;;;;;;7773899;28;20203;-91
2023/12/28 00:17:31;;;;;;;10.30;4.57;;;5.10;99.90;;;;;;7750109;28;20203;-90
2023/12/28 00:21:16;;;;;;;11.53;4.57;;;5.10;99.90;;;;;;7760834;28;20184;-89
2023/12/28 00:25:02;;;;;;;10.23;4.60;;;4.90;99.90;;;;;;7779206;28;20548;-90
2023/12/28 00:28:48;;;;;;;10.37;3.90;;;5.00;99.90;;;;;;7749755;28;20211;-90
2023/12/28 00:32:34;;;;;;;7.83;4.13;;;5.00;99.90;;;;;;7748258;28;20180;-90
2023/12/28 00:36:20;;;;;;;9.90;3.63;;;5.00;99.90;;;;;;7748777;28;20218;-89
2023/12/28 00:40:06;;;;;;;8.70;3.80;;;5.00;99.90;;;;;;7747998;28;20712;-88
2023/12/28 00:43:52;;;;;;;6.80;3.80;;;5.00;99.90;;;;;;7765882;28;20550;-90
2023/12/28 00:47:37;;;;;;;7.83;4.03;;;5.20;99.90;;;;;;7777418;28;20179;-90
2023/12/28 00:51:23;;;;;;;6.83;3.90;;;5.10;99.90;;;;;;7777474;28;20637;-90
2023/12/28 00:55:11;;;;;;;7.17;3.97;;;5.10;99.90;;;;;;7751082;28;20203;-91
2023/12/28 00:58:56;;;;;;;9.00;4.00;;;5.10;99.90;;;;;;7765668;28;20198;-91
2023/12/28 01:02:43;;;;;;;8.70;3.93;;;5.10;99.90;;;;;;7777314;28;20267;-89
2023/12/28 01:06:28;;;;;;;8.47;3.90;;;5.10;99.90;;;;;;7778369;28;20196;-89
2023/12/28 01:10:14;;;;;;;8.00;4.43;;;5.00;99.90;;;;;;7769426;28;20227;-90
2023/12/28 01:14:00;;;;;;;9.63;4.23;;;5.00;99.90;;;;;;7747429;28;20199;-89
2023/12/28 01:17:45;;;;;;;7.80;4.13;;;5.10;99.90;;;;;;7745839;28;20539;-90
2023/12/28 01:21:31;;;;;;;6.43;3.37;;;5.00;99.90;;;;;;7755799;28;20176;-90
2023/12/28 01:25:17;;;;;;;11.57;4.17;;;5.20;99.90;;;;;;7763744;28;20200;-90
2023/12/28 01:29:03;;;;;;;8.23;4.20;;;5.10;99.90;;;;;;7745792;28;20720;-89
2023/12/28 01:32:48;;;;;;;7.07;3.90;;;5.10;99.90;;;;;;7747258;28;20176;-90
2023/12/28 01:36:34;;;;;;;7.07;3.97;;;5.10;99.90;;;;;;7745612;28;20199;-90
2023/12/28 01:40:20;;;;;;;9.00;4.37;;;5.10;99.90;;;;;;7763351;28;20728;-89
2023/12/28 01:44:06;;;;;;;6.80;3.83;;;5.00;99.90;;;;;;7763848;28;20626;-89
2023/12/28 01:47:56;;;;;;;8.13;4.10;;;5.10;99.90;;;;;;7745161;28;20187;-90
2023/12/28 01:51:43;;;;;;;9.93;4.40;;;5.00;99.90;;;;;;7745209;28;20274;-90
2023/12/28 01:55:30;;;;;;;6.67;3.90;;;5.20;99.90;;;;;;7745077;28;20701;-90
2023/12/28 01:59:16;;;;;;;9.20;4.27;;;5.20;99.90;;;;;;7748141;28;20267;-89
2023/12/28 02:03:01;;;;;;;5.90;3.40;;;5.20;99.90;;;;;;7762662;28;20191;-89
2023/12/28 02:06:47;;;;;;;5.70;3.50;;;5.20;99.90;;;;;;7773801;28;20185;-89
2023/12/28 02:10:33;;;;;;;8.13;4.03;;;5.30;99.90;;;;;;7753578;28;20204;-90
2023/12/28 02:14:18;;;;;;;9.50;4.17;;;5.20;99.90;;;;;;7748963;28;20204;-90
2023/12/28 02:18:07;;;;;;;8.70;3.90;;;5.30;99.90;;;;;;7744829;28;20202;-90
2023/12/28 02:21:54;;;;;;;7.13;3.50;;;5.30;99.90;;;;;;7760614;28;20183;-89
2023/12/28 02:25:40;;;;;;;7.83;4.03;;;5.30;99.90;;;;;;7752492;28;20458;-89
2023/12/28 02:29:26;;;;;;;8.90;4.50;;;5.30;99.90;;;;;;7771774;28;20205;-89
2023/12/28 02:33:50;;;;;;;5.60;3.50;;;5.30;99.90;;;;;;7756589;28;20175;-90
2023/12/28 02:37:37;;;;;;;6.30;3.13;;;5.20;99.90;;;;;;7709679;28;20184;-90
2023/12/28 02:41:24;;;;;;;6.17;3.37;;;5.30;99.90;;;;;;7685680;28;20197;-90
2023/12/28 02:45:10;;;;;;;5.47;2.83;;;5.30;99.90;;;;;;7665512;29;20207;-90
2023/12/28 02:48:59;;;;;;;4.03;2.50;;;5.30;99.90;;;;;;7688271;28;20208;-90
2023/12/28 02:52:44;;;;;;;5.17;2.03;;;5.40;99.90;;;;;;7681558;28;20289;-90
2023/12/28 02:56:32;;;;;;;2.90;1.80;;;5.60;99.90;;;;;;7683617;28;20403;-89
2023/12/28 03:00:17;;;;;;;3.63;2.27;;;5.70;99.90;;;;;;7686560;28;20553;-90
2023/12/28 03:04:03;;;;;;;5.07;2.53;;;5.80;99.90;;;;;;7690585;28;20197;-90
2023/12/28 03:07:49;;;;;;;2.90;1.90;;;6.00;99.90;;;;;;7675074;28;20667;-90
2023/12/28 03:11:35;;;;;;;5.03;2.20;;;5.90;99.90;;;;;;7704807;28;20566;-89
2023/12/28 03:15:20;;;;;;;5.40;2.40;;;6.00;99.90;;;;;;7766737;28;20299;-90
2023/12/28 03:19:06;;;;;;;5.20;2.47;;;5.80;99.90;;;;;;7766153;28;20227;-90
2023/12/28 03:22:52;;;;;;;3.87;2.33;;;5.70;99.90;;;;;;7749690;28;20180;-90
2023/12/28 03:26:38;;;;;;;5.90;3.00;;;5.80;99.90;;;;;;7750570;28;20199;-89
2023/12/28 03:30:24;;;;;;;1.33;1.10;;;5.50;99.90;;;;;;7751086;28;20686;-90
2023/12/28 03:34:09;;;;;;;1.23;0.80;;;5.70;99.90;;;;;;7750925;28;20658;-90
2023/12/28 03:37:55;;;;;;;3.07;1.60;;;6.30;99.90;;;;;;7750829;28;20271;-89
2023/12/28 03:41:41;;;;;;;7.00;3.23;;;6.70;99.90;;;;;;7778119;28;20179;-90
2023/12/28 03:45:26;;;;;;;9.57;3.87;;;6.70;99.90;;;;;;7782723;28;20191;-89
2023/12/28 03:49:12;;;;;;;6.80;3.50;;;6.50;99.90;;;;;;7782763;28;20294;-89
2023/12/28 03:52:58;;;;;;;5.60;3.30;;;6.00;99.90;;;;;;7775847;28;20228;-89
2023/12/28 03:56:45;;;;;;;2.77;1.40;;;5.90;99.90;;;;;;7750419;28;20728;-89
2023/12/28 04:00:31;;;;;;;2.17;1.10;;;6.00;99.90;;;;;;7750239;28;20184;-90
2023/12/28 04:04:16;;;;;;;1.93;1.00;;;6.40;99.90;;;;;;7765162;28;20206;-89
2023/12/28 04:08:02;;;;;;;3.27;1.97;;;6.90;99.90;;;;;;7780332;28;20198;-90
2023/12/28 04:11:48;;;;;;;3.27;2.10;;;6.90;99.90;;;;;;7780204;28;20676;-89
2023/12/28 04:15:34;;;;;;;5.07;2.77;;;6.80;99.90;;;;;;7776789;28;20209;-89
2023/12/28 04:19:19;;;;;;;9.33;2.90;;;6.70;99.90;;;;;;7780002;28;20276;-89
2023/12/28 04:23:08;;;;;;;4.30;2.37;;;6.60;99.90;;;;;;7766565;28;20278;-90
2023/12/28 04:26:54;;;;;;;3.57;2.00;;;6.50;99.90;;;;;;7779136;28;20175;-89
2023/12/28 04:30:40;;;;;;;3.40;2.20;;;6.40;99.90;;;;;;7779654;28;20234;-90
2023/12/28 04:34:26;;;;;;;5.57;2.20;;;6.50;99.90;;;;;;7752102;28;20211;-90
2023/12/28 04:38:12;;;;;;;3.50;2.17;;;6.50;99.90;;;;;;7749113;28;20180;-90
2023/12/28 04:41:58;;;;;;;5.53;2.47;;;6.50;99.90;;;;;;7748962;28;20634;-90
2023/12/28 04:45:43;;;;;;;4.63;2.50;;;6.50;99.90;;;;;;7736921;28;20205;-90
2023/12/28 04:49:29;;;;;;;5.40;3.00;;;6.60;99.90;;;;;;7743828;28;20205;-90
2023/12/28 04:53:23;;;;;;;4.63;2.60;;;6.60;99.90;;;;;;7762038;28;20180;-90
2023/12/28 04:57:09;;;;;;;3.60;1.90;;;6.60;99.90;;;;;;7748759;28;20172;-90
2023/12/28 05:00:54;;;;;;;3.10;1.80;;;6.60;99.90;;;;;;7748232;28;20187;-90
2023/12/28 05:04:40;;;;;;;2.50;1.80;;;6.70;99.90;;;;;;7748659;28;20234;-90
2023/12/28 05:08:25;;;;;;;2.57;1.60;;;6.90;99.90;;;;;;7747971;28;20560;-90
2023/12/28 05:12:11;;;;;;;2.53;1.90;;;7.10;99.90;;;;;;7748053;28;20180;-91
2023/12/28 05:15:56;;;;;;;4.13;1.70;;;7.00;99.90;;;;;;7754938;28;20207;-90
2023/12/28 05:19:42;;;;;;;3.43;1.90;;;7.20;99.90;;;;;;7779306;28;20194;-91
2023/12/28 05:23:28;;;;;;;2.07;1.43;;;7.20;99.90;;;;;;7777781;28;20325;-90
2023/12/28 05:27:13;;;;;;;3.37;1.50;;;7.20;99.90;;;;;;7747514;28;20184;-91
2023/12/28 05:30:59;;;;;;;2.57;1.63;;;7.30;99.90;;;;;;7748250;28;20204;-90
2023/12/28 05:34:44;;;;;;;2.90;1.50;;;7.40;99.90;;;;;;7764382;28;20326;-90
2023/12/28 05:38:30;;;;;;;4.03;1.60;;;7.60;99.90;;;;;;7746489;28;20211;-91
2023/12/28 05:42:16;;;;;;;2.40;1.77;;;7.70;99.90;;;;;;7751535;28;20196;-90
2023/12/28 05:46:01;;;;;;;2.07;1.33;;;7.80;99.90;;;;;;7753911;28;20557;-89
2023/12/28 05:49:47;;;;;;;4.50;1.27;;;7.90;99.90;;;;;;7746757;28;20211;-90
2023/12/28 05:53:32;;;;;;;2.40;1.30;;;8.10;99.90;;;;;;7750362;28;20213;-90
2023/12/28 05:57:18;;;;;;;2.47;1.40;;;8.10;99.90;;;;;;7751052;28;20184;-89
2023/12/28 06:01:12;;;;;;;1.57;1.20;;;8.10;99.90;;;;;;7772680;28;20187;-90
2023/12/28 06:04:57;;;;;;;3.33;1.50;;;8.10;99.90;;;;;;7758743;28;20215;-90
2023/12/28 06:08:43;;;;;;;1.67;1.03;;;8.10;99.90;;;;;;7746295;28;20219;-91
2023/12/28 06:12:29;;;;;;;1.83;1.20;;;8.10;99.90;;;;;;7746539;28;20266;-90
2023/12/28 06:16:14;;;;;;;3.00;1.40;;;8.10;99.90;;;;;;7760743;28;21507;-90
2023/12/28 06:20:00;;;;;;;2.90;1.33;;;8.10;99.90;;;;;;7744761;28;20222;-90
2023/12/28 06:23:45;;;;;;;3.17;1.40;;;8.50;99.90;;;;;;7743567;28;20743;-89
2023/12/28 06:27:31;;;;;;;1.97;1.10;;;8.40;99.90;;;;;;7743652;28;20195;-89
2023/12/28 06:31:17;;;;;;;3.53;1.10;;;8.40;99.90;;;;;;7746108;28;20207;-90
2023/12/28 06:35:03;;;;;;;2.07;1.30;;;8.50;99.90;;;;;;7743262;28;20487;-90
2023/12/28 06:38:48;;;;;;;2.77;1.17;;;8.50;99.90;;;;;;7744447;28;20243;-89
2023/12/28 06:42:34;;;;;;;5.53;1.23;;;8.60;99.90;;;;;;7752436;28;20188;-90
2023/12/28 06:46:20;;;;;;;1.47;1.30;;;8.50;99.90;;;;;;7745227;28;20645;-89
2023/12/28 06:50:06;;;;;;;3.93;1.60;;;8.60;99.90;;;;;;7746151;28;20214;-90
2023/12/28 06:53:51;;;;;;;2.60;1.37;;;8.60;99.90;;;;;;7747751;28;20208;-90
2023/12/28 06:57:37;;;;;;;4.77;1.37;;;8.40;99.90;;;;;;7743359;28;20191;-90
2023/12/28 07:01:23;;;;;;;2.23;1.60;;;8.50;99.90;;;;;;7746380;28;20191;-92
2023/12/28 07:05:09;;;;;;;4.13;1.60;;;8.60;99.90;;;;;;7745057;28;20210;-89
2023/12/28 07:08:55;;;;;;;3.33;2.03;;;8.50;99.90;;;;;;7743974;28;20212;-91
2023/12/28 07:12:41;;;;;;;2.93;1.60;;;8.60;99.90;;;;;;7744661;28;20214;-89
2023/12/28 07:16:26;;;;;;;3.10;1.60;;;8.60;99.90;;;;;;7744153;28;20200;-90
2023/12/28 07:20:12;;;;;;;2.30;1.40;;;8.60;99.90;;;;;;7760466;28;20203;-91
2023/12/28 07:24:06;;;;;;;3.23;1.40;;;8.60;99.90;;;;;;7744675;28;20204;-90
2023/12/28 07:27:52;;;;;;;2.13;1.50;;;8.60;99.90;;;;;;7744613;28;20556;-90
2023/12/28 07:31:38;;;;;;;2.47;1.23;;;8.60;99.90;;;;;;7744594;28;20355;-89
2023/12/28 07:35:24;;;;;;;2.57;1.20;;;8.70;99.90;;;;;;7745883;28;20479;-90
2023/12/28 07:39:22;;;;;;;2.47;1.50;;;8.70;99.90;;;;;;7755366;28;20207;-91
2023/12/28 07:43:07;;;;;;;2.13;1.60;;;8.70;99.90;;;;;;7772879;28;20708;-90
2023/12/28 07:46:54;;;;;;;3.90;1.73;;;8.80;99.90;;;;;;7776027;28;20195;-91
2023/12/28 07:50:40;;;;;;;2.37;1.50;;;8.80;99.90;;;;;;7758019;28;20685;-90
2023/12/28 07:54:27;;;;;;;2.30;1.40;;;8.80;99.90;;;;;;7772288;28;20815;-90
2023/12/28 07:58:12;;;;;;;2.33;1.53;;;8.80;99.90;;;;;;7754423;28;20521;-89
2023/12/28 08:01:58;;;;;;;1.70;1.23;;;8.80;99.90;;;;;;7763348;28;20175;-90
2023/12/28 08:05:48;;;;;;;2.97;1.47;;;8.80;99.90;;;;;;7749881;28;20203;-90
2023/12/28 08:09:35;;;;;;;1.87;1.30;;;8.70;99.90;;;;;;7750680;28;20575;-91
2023/12/28 08:13:20;;;;;;;4.67;1.60;;;8.80;99.90;;;;;;7754537;28;20828;-89
2023/12/28 08:17:06;;;;;;;3.80;1.37;;;8.80;99.90;;;;;;7749140;28;20686;-90
2023/12/28 08:20:51;;;;;;;2.23;1.40;;;8.90;99.90;;;;;;7749277;28;20930;-89
2023/12/28 08:24:37;;;;;;;2.93;1.47;;;8.90;99.90;;;;;;7734836;28;20212;-89
2023/12/28 08:28:23;;;;;;;2.40;1.40;;;8.90;99.90;;;;;;7747956;28;20214;-90
2023/12/28 08:32:10;;;;;;;3.00;1.30;;;8.90;99.90;;;;;;7751170;28;20230;-91
2023/12/28 08:35:56;;;;;;;2.23;1.60;;;8.90;99.90;;;;;;7758031;28;20187;-90
2023/12/28 08:39:41;;;;;;;2.23;1.60;;;8.90;99.90;;;;;;7752967;28;20247;-90
2023/12/28 08:43:27;;;;;;;2.20;1.67;;;8.90;99.90;;;;;;7748742;28;20200;-91
2023/12/28 08:47:16;;;;;;;3.60;2.60;;;8.90;99.90;;;;;;7748538;28;20186;-90
2023/12/28 08:51:14;;;;;;;2.33;1.57;;;8.90;99.90;;;;;;7749550;28;20243;-90
2023/12/28 08:55:00;;;;;;;2.80;1.60;;;8.90;99.90;;;;;;7766074;28;20258;-91
2023/12/28 08:58:47;;;;;;;2.87;1.80;;;8.90;99.90;;;;;;7745279;28;20207;-90
2023/12/28 09:02:33;;;;;;;2.77;1.87;;;8.80;99.90;;;;;;7752434;28;20191;-89
2023/12/28 09:06:20;;;;;;;3.93;1.80;;;8.90;99.90;;;;;;7751495;28;20572;-90
2023/12/28 09:10:09;;;;;;;2.77;1.67;;;8.90;99.90;;;;;;7760813;28;20235;-90
2023/12/28 09:13:55;;;;;;;3.20;1.77;;;8.90;99.90;;;;;;7747633;28;20336;-90
2023/12/28 09:17:41;;;;;;;3.37;1.67;;;8.90;99.90;;;;;;7748801;28;20232;-90
2023/12/28 09:21:27;;;;;;;2.30;1.33;;;8.90;99.90;;;;;;7746937;28;20192;-90
2023/12/28 09:25:14;;;;;;;2.23;1.50;;;8.90;99.90;;;;;;7747948;28;20235;-89
2023/12/28 09:29:00;;;;;;;3.37;1.53;;;8.90;99.90;;;;;;7750042;28;20232;-89
2023/12/28 09:32:45;;;;;;;4.13;1.33;;;8.90;99.90;;;;;;7750294;28;20180;-89
2023/12/28 09:36:31;;;;;;;2.10;1.60;;;8.90;99.90;;;;;;7750296;28;20678;-90
2023/12/28 09:40:17;;;;;;;2.40;1.30;;;8.90;99.90;;;;;;7747467;28;20680;-90
2023/12/28 09:44:20;;;;;;;1.77;1.53;;;9.00;99.90;;;;;;7746965;28;20204;-90
2023/12/28 09:48:06;;;;;;;3.33;1.47;;;9.00;99.90;;;;;;7765740;28;20179;-87
2023/12/28 09:51:52;;;;;;;2.57;1.60;;;9.00;99.90;;;;;;7771021;28;20191;-91
2023/12/28 09:55:39;;;;;;;2.93;1.50;;;9.00;99.90;;;;;;7748032;28;20204;-91
2023/12/28 09:59:26;;;;;;;3.97;2.30;;;9.00;99.90;;;;;;7748733;28;20192;-84
2023/12/28 10:03:17;;;;;;;1.90;1.67;;;9.10;99.90;;;;;;7746557;28;20203;-89
2023/12/28 10:07:02;;;;;;;3.50;1.50;;;9.00;99.90;;;;;;7741344;28;20278;-88
2023/12/28 10:10:54;;;;;;;5.50;1.70;;;9.10;99.90;;;;;;7758002;28;20208;-94
2023/12/28 10:14:39;;;;;;;2.10;1.63;;;9.00;99.90;;;;;;7731829;28;20579;-90
2023/12/28 10:18:25;;;;;;;2.87;1.20;;;9.00;99.90;;;;;;7745622;28;20293;-89
2023/12/28 10:22:14;;;;;;;4.90;1.37;;;9.10;99.90;;;;;;7745829;28;20271;-90
2023/12/28 10:25:59;;;;;;;4.97;2.07;;;9.00;99.90;;;;;;7741016;28;20240;-87
2023/12/28 10:29:45;;;;;;;5.60;1.83;;;9.10;99.90;;;;;;7748026;28;20302;-93
2023/12/28 10:33:37;;;;;;;3.20;1.63;;;9.00;99.90;;;;;;7749351;28;20416;-88
2023/12/28 10:37:31;;;;;;;2.30;1.40;;;9.10;99.90;;;;;;7745650;28;20664;-89
2023/12/28 10:41:17;;;;;;;1.87;1.30;;;9.10;99.90;;;;;;7731110;28;20185;-89
2023/12/28 10:45:10;;;;;;;2.20;1.47;;;9.10;99.90;;;;;;7731630;28;20205;-90
2023/12/28 10:49:10;;;;;;;3.20;1.50;;;9.00;99.90;;;;;;7731499;28;20208;-90
2023/12/28 10:53:04;;;;;;;4.73;2.27;;;9.10;99.90;;;;;;7729378;28;20710;-90
2023/12/28 10:56:59;;;;;;;7.70;6.07;;;9.00;99.90;;;;;;7743880;28;20658;-90
2023/12/28 11:00:52;;;;;;;3.67;2.57;;;9.00;99.90;;;;;;7744963;28;20184;-88
2023/12/28 11:04:53;;;;;;;6.57;3.57;;;9.00;99.90;;;;;;7744983;28;20290;-89
